createdAt,value
2023-06-27T00:02:27.277Z,2.73
2023-06-27T00:04:54.853Z,2.53
2023-06-27T00:07:22.493Z,2.77
2023-06-27T00:09:50.077Z,2.90
2023-06-27T00:12:17.692Z,2.90
2023-06-27T00:14:45.268Z,2.70
2023-06-27T00:17:12.860Z,2.60
2023-06-27T00:19:40.718Z,2.60
2023-06-27T00:22:08.320Z,2.70
2023-06-27T00:24:35.869Z,2.50
2023-06-27T00:27:03.564Z,2.50
2023-06-27T00:29:31.074Z,3.10
2023-06-27T00:31:58.720Z,2.93
2023-06-27T00:34:26.273Z,2.70
2023-06-27T00:36:53.869Z,3.00
2023-06-27T00:39:21.419Z,3.00
2023-06-27T00:41:49.026Z,3.20
2023-06-27T00:44:16.531Z,3.17
2023-06-27T00:46:44.331Z,2.80
2023-06-27T00:49:12.600Z,3.00
2023-06-27T00:51:41.125Z,3.27
2023-06-27T00:54:08.844Z,3.20
2023-06-27T00:56:36.708Z,3.00
2023-06-27T00:59:04.253Z,2.93
2023-06-27T01:01:32.921Z,2.87
2023-06-27T01:04:00.690Z,2.87
2023-06-27T01:06:47.377Z,3.07
2023-06-27T01:09:37.718Z,3.20
2023-06-27T01:12:10.528Z,2.83
2023-06-27T01:14:38.681Z,3.30
2023-06-27T01:17:06.757Z,3.33
2023-06-27T01:19:34.519Z,3.03
2023-06-27T01:22:04.737Z,3.57
2023-06-27T01:24:32.388Z,3.47
2023-06-27T01:26:59.958Z,3.40
2023-06-27T01:29:32.680Z,3.20
2023-06-27T01:32:08.914Z,3.40
2023-06-27T01:34:47.296Z,3.13
2023-06-27T01:37:27.100Z,3.50
2023-06-27T01:40:12.481Z,3.53
2023-06-27T01:42:41.791Z,3.77
2023-06-27T01:45:10.085Z,3.30
2023-06-27T01:47:39.002Z,3.30
2023-06-27T01:50:06.889Z,2.80
2023-06-27T01:52:34.441Z,3.77
2023-06-27T01:55:02.103Z,3.67
2023-06-27T01:57:30.042Z,3.23
2023-06-27T01:59:57.745Z,3.17
2023-06-27T02:02:25.456Z,3.40
2023-06-27T02:04:53.073Z,3.20
2023-06-27T02:07:20.712Z,3.40
2023-06-27T02:09:48.348Z,3.57
2023-06-27T02:12:15.892Z,3.00
2023-06-27T02:14:43.498Z,3.27
2023-06-27T02:17:11.076Z,3.20
2023-06-27T02:19:38.681Z,2.80
2023-06-27T02:22:06.433Z,3.23
2023-06-27T02:24:34.052Z,3.20
2023-06-27T02:27:01.608Z,3.47
2023-06-27T02:29:29.196Z,3.33
2023-06-27T02:31:56.767Z,2.77
2023-06-27T02:34:24.382Z,3.20
2023-06-27T02:36:52.063Z,3.53
2023-06-27T02:39:19.668Z,3.20
2023-06-27T02:41:47.257Z,3.00
2023-06-27T02:44:14.928Z,3.20
2023-06-27T02:46:42.504Z,3.00
2023-06-27T02:49:10.061Z,2.93
2023-06-27T02:51:37.600Z,2.93
2023-06-27T02:54:05.227Z,3.23
2023-06-27T02:56:32.852Z,3.50
2023-06-27T02:59:00.498Z,3.20
2023-06-27T03:01:31.051Z,3.23
2023-06-27T03:04:17.177Z,3.33
2023-06-27T03:06:46.303Z,3.13
2023-06-27T03:09:13.926Z,3.13
2023-06-27T03:11:41.720Z,3.53
2023-06-27T03:14:09.288Z,3.07
2023-06-27T03:16:36.890Z,2.83
2023-06-27T03:19:04.480Z,3.10
2023-06-27T03:21:32.318Z,2.40
2023-06-27T03:23:59.886Z,3.27
2023-06-27T03:26:27.780Z,2.63
2023-06-27T03:28:55.956Z,3.17
2023-06-27T03:31:23.756Z,3.10
2023-06-27T03:33:51.811Z,2.83
2023-06-27T03:36:21.556Z,3.03
2023-06-27T03:38:49.062Z,3.43
2023-06-27T03:41:16.661Z,3.07
2023-06-27T03:43:44.427Z,2.50
2023-06-27T03:46:12.085Z,2.50
2023-06-27T03:48:39.981Z,2.30
2023-06-27T03:51:07.618Z,3.30
2023-06-27T03:53:35.132Z,2.63
2023-06-27T03:56:03.814Z,3.07
2023-06-27T03:58:31.458Z,3.10
2023-06-27T04:00:59.139Z,2.90
2023-06-27T04:03:26.755Z,3.03
2023-06-27T04:05:54.417Z,2.80
2023-06-27T04:08:22.050Z,3.27
2023-06-27T04:10:49.657Z,3.13
2023-06-27T04:13:17.254Z,3.20
2023-06-27T04:15:44.927Z,3.50
2023-06-27T04:18:12.610Z,3.10
2023-06-27T04:20:40.264Z,2.80
2023-06-27T04:23:07.840Z,3.07
2023-06-27T04:25:38.102Z,2.60
2023-06-27T04:28:06.058Z,2.73
2023-06-27T04:30:33.590Z,2.90
2023-06-27T04:33:01.210Z,2.60
2023-06-27T04:35:31.808Z,2.70
2023-06-27T04:37:59.440Z,3.07
2023-06-27T04:40:26.986Z,2.80
2023-06-27T04:42:54.638Z,2.93
2023-06-27T04:45:22.197Z,3.00
2023-06-27T04:47:49.920Z,3.00
2023-06-27T04:50:17.566Z,3.07
2023-06-27T04:52:45.348Z,2.73
2023-06-27T04:55:12.976Z,3.10
2023-06-27T04:57:40.684Z,2.90
2023-06-27T05:00:11.167Z,3.03
2023-06-27T05:02:48.893Z,2.60
2023-06-27T05:05:17.704Z,2.50
2023-06-27T05:07:45.335Z,2.90
2023-06-27T05:10:13.061Z,3.47
2023-06-27T05:12:40.647Z,3.27
2023-06-27T05:15:08.442Z,3.10
2023-06-27T05:17:36.112Z,3.43
2023-06-27T05:20:03.840Z,2.90
2023-06-27T05:22:31.404Z,3.23
2023-06-27T05:24:59.070Z,2.57
2023-06-27T05:27:26.690Z,2.67
2023-06-27T05:29:54.326Z,2.90
2023-06-27T05:32:23.966Z,3.17
2023-06-27T05:34:51.648Z,2.77
2023-06-27T05:37:19.222Z,2.90
2023-06-27T05:39:46.935Z,2.73
2023-06-27T05:42:14.495Z,3.00
2023-06-27T05:44:42.048Z,3.20
2023-06-27T05:47:09.638Z,3.00
2023-06-27T05:49:37.185Z,3.00
2023-06-27T05:52:05.059Z,3.27
2023-06-27T05:54:32.591Z,3.10
2023-06-27T05:57:00.163Z,2.80
2023-06-27T05:59:27.715Z,3.37
2023-06-27T06:01:55.439Z,3.40
2023-06-27T06:04:23.164Z,4.10
2023-06-27T06:06:51.013Z,4.10
2023-06-27T06:09:21.412Z,7.57
2023-06-27T06:11:48.995Z,6.37
2023-06-27T06:14:16.608Z,6.13
2023-06-27T06:16:44.216Z,4.93
2023-06-27T06:19:11.811Z,5.35
2023-06-27T06:21:39.454Z,3.63
2023-06-27T06:24:07.202Z,3.80
2023-06-27T06:26:34.796Z,3.65
2023-06-27T06:29:02.644Z,3.78
2023-06-27T06:31:30.317Z,3.83
2023-06-27T06:33:57.915Z,3.50
2023-06-27T06:36:26.056Z,2.78
2023-06-27T06:38:53.599Z,3.60
2023-06-27T06:41:21.205Z,3.47
2023-06-27T06:43:48.775Z,3.72
2023-06-27T06:46:16.416Z,2.85
2023-06-27T06:48:43.945Z,3.65
2023-06-27T06:51:11.611Z,3.20
2023-06-27T06:53:39.196Z,3.40
2023-06-27T06:56:06.861Z,3.60
2023-06-27T06:58:34.449Z,3.70
2023-06-27T07:01:02.152Z,3.85
2023-06-27T07:03:29.784Z,5.03
2023-06-27T07:05:57.400Z,3.90
2023-06-27T07:08:24.969Z,4.17
2023-06-27T07:10:52.772Z,3.90
2023-06-27T07:13:20.379Z,4.13
2023-06-27T07:15:48.033Z,4.50
2023-06-27T07:18:15.697Z,4.53
2023-06-27T07:20:43.311Z,3.83
2023-06-27T07:23:10.917Z,3.53
2023-06-27T07:25:39.766Z,3.60
2023-06-27T07:28:07.624Z,3.97
2023-06-27T07:30:35.264Z,3.70
2023-06-27T07:33:02.926Z,3.40
2023-06-27T07:35:30.746Z,4.00
2023-06-27T07:37:58.392Z,4.37
2023-06-27T07:40:26.123Z,4.13
2023-06-27T07:42:53.733Z,3.90
2023-06-27T07:45:21.371Z,3.90
2023-06-27T07:47:48.980Z,3.90
2023-06-27T07:50:19.370Z,4.13
2023-06-27T07:52:47.118Z,4.00
2023-06-27T07:55:14.731Z,4.57
2023-06-27T07:57:42.901Z,3.80
2023-06-27T08:00:13.922Z,4.00
2023-06-27T08:02:41.651Z,3.97
2023-06-27T08:05:09.679Z,4.83
2023-06-27T08:07:37.570Z,3.83
2023-06-27T08:10:05.500Z,4.00
2023-06-27T08:12:33.394Z,3.57
2023-06-27T08:15:01.100Z,3.60
2023-06-27T08:17:29.003Z,3.70
2023-06-27T08:19:56.572Z,3.83
2023-06-27T08:22:24.166Z,3.63
2023-06-27T08:24:51.766Z,3.67
2023-06-27T08:27:19.436Z,3.53
2023-06-27T08:29:47.454Z,3.57
2023-06-27T08:32:15.068Z,3.47
2023-06-27T08:34:42.862Z,3.40
2023-06-27T08:37:11.102Z,3.70
2023-06-27T08:39:39.117Z,3.87
2023-06-27T08:42:07.254Z,3.37
2023-06-27T08:44:36.679Z,3.30
2023-06-27T08:47:06.857Z,3.20
2023-06-27T08:49:35.361Z,2.70
2023-06-27T08:52:03.611Z,3.37
2023-06-27T08:54:31.274Z,3.00
2023-06-27T08:57:05.954Z,2.93
2023-06-27T08:59:37.724Z,3.40
2023-06-27T09:02:07.569Z,2.93
2023-06-27T09:04:35.425Z,3.20
2023-06-27T09:07:03.222Z,2.97
2023-06-27T09:09:30.981Z,2.90
2023-06-27T09:12:02.047Z,3.33
2023-06-27T09:14:30.113Z,3.10
2023-06-27T09:16:57.753Z,2.90
2023-06-27T09:19:25.378Z,2.80
2023-06-27T09:21:54.570Z,3.03
2023-06-27T09:24:23.363Z,2.77
2023-06-27T09:26:50.960Z,3.10
2023-06-27T09:29:18.650Z,3.47
2023-06-27T09:31:46.314Z,2.83
2023-06-27T09:34:14.116Z,2.70
2023-06-27T09:39:13.270Z,3.10
2023-06-27T09:41:50.788Z,2.77
2023-06-27T09:44:20.060Z,3.50
2023-06-27T09:46:48.646Z,3.30
2023-06-27T09:49:16.790Z,3.03
2023-06-27T09:51:47.986Z,3.10
2023-06-27T09:54:18.489Z,2.70
2023-06-27T09:56:48.925Z,3.07
2023-06-27T09:59:23.706Z,2.87
2023-06-27T10:01:52.428Z,3.47
2023-06-27T10:04:20.286Z,2.40
2023-06-27T10:06:48.185Z,2.83
2023-06-27T10:09:15.879Z,3.20
2023-06-27T10:11:43.946Z,2.93
2023-06-27T10:14:11.758Z,3.07
2023-06-27T10:16:40.898Z,2.73
2023-06-27T10:19:08.524Z,2.27
2023-06-27T10:21:36.161Z,2.13
2023-06-27T10:24:04.356Z,2.70
2023-06-27T10:26:32.004Z,2.60
2023-06-27T10:28:59.625Z,2.37
2023-06-27T10:31:40.257Z,2.50
2023-06-27T10:34:08.074Z,2.47
2023-06-27T10:36:54.338Z,2.30
2023-06-27T10:39:42.303Z,2.23
2023-06-27T10:42:12.978Z,2.37
2023-06-27T10:44:55.738Z,2.20
2023-06-27T10:47:23.461Z,2.73
2023-06-27T10:49:54.039Z,2.77
2023-06-27T10:52:26.012Z,3.10
2023-06-27T10:55:12.303Z,3.27
2023-06-27T10:57:40.250Z,3.27
2023-06-27T11:00:14.242Z,2.60
2023-06-27T11:02:45.911Z,2.83
2023-06-27T11:05:17.945Z,3.30
2023-06-27T11:08:00.322Z,3.43
2023-06-27T11:10:29.473Z,3.20
2023-06-27T11:13:23.444Z,3.20
2023-06-27T11:15:52.303Z,3.07
2023-06-27T11:18:20.382Z,3.00
2023-06-27T11:20:48.031Z,2.47
2023-06-27T11:23:15.807Z,2.23
2023-06-27T11:25:47.086Z,2.50
2023-06-27T11:28:15.352Z,2.20
2023-06-27T11:30:43.543Z,2.50
2023-06-27T11:33:11.564Z,1.90
2023-06-27T11:35:41.059Z,1.80
2023-06-27T11:38:09.252Z,2.10
2023-06-27T11:40:36.893Z,2.20
2023-06-27T11:43:05.703Z,2.73
2023-06-27T11:45:33.624Z,3.03
2023-06-27T11:48:02.003Z,2.93
2023-06-27T11:50:30.278Z,2.50
2023-06-27T11:52:58.345Z,2.10
2023-06-27T11:55:26.275Z,2.50
2023-06-27T11:57:57.772Z,2.40
2023-06-27T12:00:27.972Z,2.80
2023-06-27T12:02:56.864Z,2.53
2023-06-27T12:05:25.498Z,2.53
2023-06-27T12:07:55.923Z,2.07
2023-06-27T12:10:23.674Z,2.40
2023-06-27T12:12:51.694Z,2.70
2023-06-27T12:15:19.328Z,2.40
2023-06-27T12:17:59.962Z,2.30
2023-06-27T12:20:28.280Z,2.00
2023-06-27T12:22:55.841Z,2.00
2023-06-27T12:25:23.424Z,2.10
2023-06-27T12:27:50.992Z,2.37
2023-06-27T12:30:18.710Z,2.10
2023-06-27T12:32:46.248Z,2.20
2023-06-27T12:35:14.675Z,2.20
2023-06-27T12:37:42.221Z,2.00
2023-06-27T12:40:10.076Z,2.20
2023-06-27T12:42:37.617Z,2.30
2023-06-27T12:45:05.477Z,2.23
2023-06-27T12:47:33.153Z,2.30
2023-06-27T12:50:00.889Z,2.33
2023-06-27T12:52:28.484Z,2.53
2023-06-27T12:54:56.091Z,2.53
2023-06-27T12:57:23.742Z,2.23
2023-06-27T12:59:54.059Z,2.00
2023-06-27T13:02:21.845Z,2.13
2023-06-27T13:04:49.571Z,1.70
2023-06-27T13:07:17.235Z,2.07
2023-06-27T13:09:45.209Z,2.03
2023-06-27T13:12:12.867Z,2.27
2023-06-27T13:14:40.384Z,2.07
2023-06-27T13:17:08.098Z,2.00
2023-06-27T13:19:35.735Z,2.17
2023-06-27T13:22:03.407Z,1.80
2023-06-27T13:24:31.083Z,1.67
2023-06-27T13:26:58.825Z,1.70
2023-06-27T13:29:26.429Z,1.63
2023-06-27T13:31:54.150Z,1.70
2023-06-27T13:34:22.184Z,1.30
2023-06-27T13:36:50.127Z,1.33
2023-06-27T13:39:20.774Z,1.70
2023-06-27T13:41:48.411Z,1.40
2023-06-27T13:44:15.939Z,1.37
2023-06-27T13:46:43.605Z,1.40
2023-06-27T13:49:11.152Z,1.47
2023-06-27T13:51:38.841Z,1.40
2023-06-27T13:54:06.488Z,1.50
2023-06-27T13:56:36.974Z,1.43
2023-06-27T13:59:05.027Z,1.23
2023-06-27T14:01:33.401Z,1.40
2023-06-27T14:04:01.068Z,1.27
2023-06-27T14:06:28.870Z,1.20
2023-06-27T14:08:56.491Z,1.40
2023-06-27T14:11:24.369Z,1.53
2023-06-27T14:13:52.009Z,1.20
2023-06-27T14:16:20.530Z,1.40
2023-06-27T14:18:48.474Z,1.70
2023-06-27T14:21:16.082Z,1.40
2023-06-27T14:23:43.746Z,1.30
2023-06-27T14:26:11.327Z,1.60
2023-06-27T14:28:38.957Z,1.63
2023-06-27T14:31:06.582Z,1.63
2023-06-27T14:33:34.476Z,1.47
2023-06-27T14:36:02.109Z,1.90
2023-06-27T14:38:29.803Z,1.50
2023-06-27T14:40:57.372Z,1.83
2023-06-27T14:43:24.992Z,1.60
2023-06-27T14:45:52.491Z,1.70
2023-06-27T14:48:20.119Z,1.80
2023-06-27T14:50:47.763Z,2.13
2023-06-27T14:53:15.419Z,1.60
2023-06-27T14:55:42.969Z,1.60
2023-06-27T14:58:10.636Z,1.80
2023-06-27T15:00:39.697Z,1.80
2023-06-27T15:03:09.524Z,1.50
2023-06-27T15:05:38.971Z,1.60
2023-06-27T15:08:06.719Z,1.60
2023-06-27T15:10:34.369Z,1.80
2023-06-27T15:13:02.040Z,1.40
2023-06-27T15:15:29.685Z,1.63
2023-06-27T15:17:59.916Z,1.83
2023-06-27T15:20:27.542Z,1.70
2023-06-27T15:22:55.091Z,1.50
2023-06-27T15:25:22.887Z,1.80
2023-06-27T15:27:50.431Z,1.70
2023-06-27T15:30:18.131Z,1.53
2023-06-27T15:32:45.787Z,1.70
2023-06-27T15:35:13.535Z,1.40
2023-06-27T15:37:43.901Z,1.80
2023-06-27T15:40:11.761Z,1.77
2023-06-27T15:42:39.430Z,1.80
2023-06-27T15:45:07.585Z,1.90
2023-06-27T15:47:35.377Z,1.63
2023-06-27T15:50:03.419Z,2.27
2023-06-27T15:52:31.353Z,1.70
2023-06-27T15:54:58.952Z,1.70
2023-06-27T15:57:26.563Z,2.07
2023-06-27T15:59:54.232Z,1.80
2023-06-27T16:02:21.787Z,1.77
2023-06-27T16:04:49.980Z,1.70
2023-06-27T16:07:17.942Z,1.60
2023-06-27T16:09:45.748Z,1.67
2023-06-27T16:12:13.498Z,2.00
2023-06-27T16:14:41.182Z,1.70
2023-06-27T16:17:08.772Z,1.90
2023-06-27T16:19:36.543Z,1.90
2023-06-27T16:22:04.202Z,1.60
2023-06-27T16:24:32.234Z,1.90
2023-06-27T16:26:59.777Z,2.00
2023-06-27T16:29:27.799Z,1.70
2023-06-27T16:31:55.529Z,1.57
2023-06-27T16:34:23.403Z,1.60
2023-06-27T16:36:50.961Z,1.50
2023-06-27T16:39:18.616Z,1.53
2023-06-27T16:41:46.230Z,1.80
2023-06-27T16:44:13.911Z,1.33
2023-06-27T16:46:41.467Z,1.70
2023-06-27T16:49:09.110Z,1.90
2023-06-27T16:51:36.650Z,1.77
2023-06-27T16:54:04.316Z,1.60
2023-06-27T16:56:31.953Z,1.90
2023-06-27T16:58:59.516Z,1.80
2023-06-27T17:01:29.941Z,1.90
2023-06-27T17:03:57.609Z,1.90
2023-06-27T17:06:25.249Z,1.60
2023-06-27T17:08:52.849Z,1.90
2023-06-27T17:11:20.426Z,1.53
2023-06-27T17:13:49.119Z,1.63
2023-06-27T17:16:17.199Z,2.00
2023-06-27T17:18:44.924Z,2.10
2023-06-27T17:21:12.580Z,1.77
2023-06-27T17:23:40.196Z,1.67
2023-06-27T17:26:07.889Z,1.53
2023-06-27T17:28:35.503Z,1.80
2023-06-27T17:31:03.176Z,1.60
2023-06-27T17:33:30.796Z,1.57
2023-06-27T17:35:58.464Z,1.43
2023-06-27T17:38:26.057Z,1.70
2023-06-27T17:40:53.673Z,1.63
2023-06-27T17:43:21.295Z,1.87
2023-06-27T17:45:48.954Z,1.90
2023-06-27T17:48:16.530Z,1.70
2023-06-27T17:50:44.361Z,1.80
2023-06-27T17:53:12.115Z,1.87
2023-06-27T17:55:39.840Z,1.70
2023-06-27T17:58:07.897Z,1.70
2023-06-27T18:00:35.681Z,1.67
2023-06-27T18:03:03.434Z,1.40
2023-06-27T18:05:31.097Z,1.40
2023-06-27T18:07:58.704Z,1.60
2023-06-27T18:10:26.390Z,1.50
2023-06-27T18:12:54.046Z,1.50
2023-06-27T18:15:21.626Z,1.53
2023-06-27T18:17:49.277Z,1.53
2023-06-27T18:20:16.936Z,1.40
2023-06-27T18:22:44.512Z,1.80
2023-06-27T18:25:12.180Z,1.70
2023-06-27T18:27:39.750Z,1.30
2023-06-27T18:30:07.713Z,1.40
2023-06-27T18:32:35.339Z,1.57
2023-06-27T18:35:03.027Z,1.77
2023-06-27T18:37:32.942Z,1.77
2023-06-27T18:40:00.598Z,1.67
2023-06-27T18:42:28.185Z,2.43
2023-06-27T18:44:55.848Z,1.50
2023-06-27T18:47:23.567Z,1.80
2023-06-27T18:49:51.288Z,1.60
2023-06-27T18:52:19.345Z,1.73
2023-06-27T18:54:47.049Z,1.50
2023-06-27T18:57:14.754Z,2.10
2023-06-27T18:59:42.532Z,1.63
2023-06-27T19:02:10.224Z,1.87
2023-06-27T19:04:37.920Z,1.60
2023-06-27T19:07:08.730Z,1.70
2023-06-27T19:09:37.613Z,1.60
2023-06-27T19:12:05.356Z,1.70
2023-06-27T19:14:33.214Z,1.43
2023-06-27T19:17:00.850Z,1.80
2023-06-27T19:19:29.130Z,1.67
2023-06-27T19:22:01.147Z,1.60
2023-06-27T19:24:28.892Z,1.50
2023-06-27T19:26:56.631Z,1.70
2023-06-27T19:29:24.458Z,2.10
2023-06-27T19:31:52.180Z,1.97
2023-06-27T19:34:20.051Z,2.00
2023-06-27T19:36:47.858Z,1.77
2023-06-27T19:39:15.659Z,1.80
2023-06-27T19:41:43.425Z,2.00
2023-06-27T19:44:11.161Z,1.97
2023-06-27T19:46:38.788Z,1.50
2023-06-27T19:49:06.461Z,1.83
2023-06-27T19:51:34.168Z,1.60
2023-06-27T19:54:01.886Z,1.63
2023-06-27T19:56:29.569Z,1.90
2023-06-27T19:58:57.234Z,1.70
2023-06-27T20:01:25.286Z,1.60
2023-06-27T20:03:54.423Z,1.50
2023-06-27T20:06:22.202Z,1.60
2023-06-27T20:08:49.862Z,1.80
2023-06-27T20:11:17.470Z,1.60
2023-06-27T20:13:47.093Z,1.53
2023-06-27T20:16:14.940Z,1.47
2023-06-27T20:18:42.515Z,1.60
2023-06-27T20:21:10.403Z,1.47
2023-06-27T20:23:38.106Z,1.60
2023-06-27T20:26:05.962Z,1.97
2023-06-27T20:28:33.747Z,1.40
2023-06-27T20:31:01.520Z,1.53
2023-06-27T20:33:29.256Z,1.47
2023-06-27T20:35:57.107Z,1.87
2023-06-27T20:38:24.745Z,2.13
2023-06-27T20:40:52.548Z,1.50
2023-06-27T20:43:20.141Z,1.50
2023-06-27T20:45:47.862Z,1.50
2023-06-27T20:48:15.579Z,2.03
2023-06-27T20:50:43.553Z,1.53
2023-06-27T20:53:11.437Z,2.00
2023-06-27T20:55:39.351Z,1.50
2023-06-27T20:58:11.119Z,1.77
2023-06-27T21:00:40.258Z,1.57
2023-06-27T21:03:08.163Z,1.77
2023-06-27T21:05:36.189Z,1.83
2023-06-27T21:08:03.805Z,1.70
2023-06-27T21:10:31.560Z,2.20
2023-06-27T21:12:59.085Z,1.90
2023-06-27T21:15:26.689Z,1.63
2023-06-27T21:17:54.286Z,1.63
2023-06-27T21:20:21.995Z,2.27
2023-06-27T21:22:49.554Z,2.00
2023-06-27T21:25:17.676Z,1.87
2023-06-27T21:27:51.422Z,2.13
2023-06-27T21:30:19.901Z,2.40
2023-06-27T21:32:50.367Z,2.00
2023-06-27T21:35:18.097Z,1.93
2023-06-27T21:37:46.981Z,2.00
2023-06-27T21:40:14.737Z,1.80
2023-06-27T21:42:42.488Z,2.00
2023-06-27T21:45:10.298Z,1.90
2023-06-27T21:47:37.972Z,1.90
2023-06-27T21:50:05.925Z,1.80
2023-06-27T21:52:33.516Z,2.20
2023-06-27T21:55:01.182Z,2.10
2023-06-27T21:57:28.742Z,2.33
2023-06-27T21:59:56.358Z,1.73
2023-06-27T22:02:24.088Z,1.73
2023-06-27T22:04:52.106Z,1.90
2023-06-27T22:07:20.046Z,1.80
2023-06-27T22:09:47.778Z,1.77
2023-06-27T22:12:15.371Z,1.80
2023-06-27T22:14:42.973Z,1.63
2023-06-27T22:17:10.562Z,2.13
2023-06-27T22:19:38.227Z,1.90
2023-06-27T22:22:05.998Z,1.93
2023-06-27T22:24:33.715Z,2.10
2023-06-27T22:27:01.520Z,2.20
2023-06-27T22:29:29.234Z,1.97
2023-06-27T22:31:56.974Z,1.50
2023-06-27T22:34:24.695Z,1.80
2023-06-27T22:36:52.334Z,2.17
2023-06-27T22:39:19.944Z,1.80
2023-06-27T22:41:47.593Z,1.93
2023-06-27T22:44:15.262Z,1.70
2023-06-27T22:46:42.885Z,1.80
2023-06-27T22:49:10.608Z,1.93
2023-06-27T22:51:38.404Z,2.10
2023-06-27T22:54:06.106Z,1.77
2023-06-27T22:56:33.686Z,1.87
2023-06-27T22:59:01.859Z,2.10
2023-06-27T23:01:29.442Z,1.90
2023-06-27T23:03:57.118Z,2.20
2023-06-27T23:06:24.701Z,2.27
2023-06-27T23:08:52.282Z,1.80
2023-06-27T23:11:19.802Z,2.20
2023-06-27T23:13:47.481Z,2.00
2023-06-27T23:16:15.102Z,1.70
2023-06-27T23:18:43.009Z,2.00
2023-06-27T23:21:10.543Z,2.13
2023-06-27T23:23:38.443Z,2.13
2023-06-27T23:26:06.645Z,1.90
2023-06-27T23:28:34.227Z,2.10
2023-06-27T23:31:01.806Z,1.77
2023-06-27T23:33:29.400Z,1.60
2023-06-27T23:35:56.966Z,1.70
2023-06-27T23:38:24.541Z,1.70
2023-06-27T23:40:52.129Z,1.83
2023-06-27T23:43:19.758Z,1.83
2023-06-27T23:45:47.277Z,1.47
2023-06-27T23:48:14.892Z,2.03
2023-06-27T23:50:42.716Z,1.80
2023-06-27T23:53:10.601Z,1.97
2023-06-27T23:55:38.178Z,1.97
2023-06-27T23:58:05.792Z,2.30
